Woodlawn, Tennessee
Current Conditions -  °F | °C
As of 3:52 AM on Saturday 22 Nov 2014 (Local Time) from KCKV Reporting Station
Light Rain Light Rain  
Wind Chill: 45°   Ceiling: 9000
Heat Index: 48°   Visibility: 10mi
Dew Point: 35°   Wind: 6mph
Humidity: 61%   Direction: 150°SSE
Pressure: 30.31"   Gusts: NA
Location:  36.54°N, 87.51°W
Report Text: KCKV 220952Z AUTO 15005KT 10SM -RA OVC090 09/02 A3031 RMK AO2 RAB41 SLP263 P0000 T00890017
Loading
Personal Weather Stations






























Interactive Weather Map New forecast layout! Learn more

10-Day Weather Forecast

Advertisements
Track Severe Weather on mobile